createdAt,value
2022-11-27T00:00:14.575Z,16.70
2022-11-27T00:01:14.735Z,18.80
2022-11-27T00:02:14.987Z,16.80
2022-11-27T00:03:15.142Z,16.80
2022-11-27T00:04:15.358Z,20.20
2022-11-27T00:05:15.402Z,15.40
2022-11-27T00:06:15.580Z,18.40
2022-11-27T00:07:15.805Z,17.40
2022-11-27T00:08:15.933Z,15.90
2022-11-27T00:09:16.088Z,16.30
2022-11-27T00:10:16.262Z,19.00
2022-11-27T00:11:16.422Z,16.10
2022-11-27T00:12:16.592Z,17.40
2022-11-27T00:13:16.781Z,18.00
2022-11-27T00:14:16.938Z,14.60
2022-11-27T00:15:17.502Z,16.40
2022-11-27T00:16:17.383Z,16.90
2022-11-27T00:17:17.469Z,16.80
2022-11-27T00:18:17.688Z,16.20
2022-11-27T00:19:17.816Z,16.50
2022-11-27T00:20:17.979Z,16.00
2022-11-27T00:21:18.131Z,16.40
2022-11-27T00:22:18.296Z,14.30
2022-11-27T00:23:18.482Z,15.70
2022-11-27T00:24:18.621Z,16.50
2022-11-27T00:25:18.781Z,16.60
2022-11-27T00:26:18.960Z,14.80
2022-11-27T00:27:19.120Z,16.10
2022-11-27T00:28:19.290Z,17.50
2022-11-27T00:29:19.461Z,15.30
2022-11-27T00:30:19.626Z,17.00
2022-11-27T00:31:19.857Z,16.40
2022-11-27T00:32:19.970Z,15.50
2022-11-27T00:33:20.141Z,17.80
2022-11-27T00:34:20.313Z,16.70
2022-11-27T00:35:20.478Z,17.50
2022-11-27T00:36:20.663Z,16.10
2022-11-27T00:37:20.820Z,15.80
2022-11-27T00:38:21.011Z,17.10
2022-11-27T00:39:21.162Z,15.70
2022-11-27T00:40:21.330Z,18.00
2022-11-27T00:41:21.505Z,16.80
2022-11-27T00:42:21.676Z,17.00
2022-11-27T00:43:21.844Z,15.70
2022-11-27T00:44:22.004Z,17.80
2022-11-27T00:45:22.185Z,16.10
2022-11-27T00:46:27.833Z,14.10
2022-11-27T00:47:23.510Z,14.70
2022-11-27T00:48:22.719Z,17.10
2022-11-27T00:49:22.855Z,17.40
2022-11-27T00:50:23.039Z,14.20
2022-11-27T00:51:23.187Z,15.00
2022-11-27T00:52:23.352Z,14.40
2022-11-27T00:53:23.550Z,15.70
2022-11-27T00:54:23.737Z,15.80
2022-11-27T00:55:23.889Z,16.70
2022-11-27T00:56:24.090Z,17.40
2022-11-27T00:57:24.232Z,16.30
2022-11-27T00:58:24.407Z,16.30
2022-11-27T00:59:24.574Z,15.30
2022-11-27T01:00:24.754Z,15.20
2022-11-27T01:01:24.959Z,16.20
2022-11-27T01:02:25.126Z,16.70
2022-11-27T01:03:25.222Z,15.80
2022-11-27T01:04:25.411Z,17.10
2022-11-27T01:05:25.569Z,16.50
2022-11-27T01:06:25.728Z,15.00
2022-11-27T01:07:25.900Z,15.70
2022-11-27T01:08:26.071Z,15.00
2022-11-27T01:09:26.217Z,14.40
2022-11-27T01:10:26.374Z,16.10
2022-11-27T01:11:26.534Z,17.50
2022-11-27T01:12:26.744Z,14.90
2022-11-27T01:13:26.886Z,14.00
2022-11-27T01:14:27.071Z,16.10
2022-11-27T01:15:27.227Z,16.70
2022-11-27T01:16:27.420Z,15.80
2022-11-27T01:17:27.562Z,17.30
2022-11-27T01:18:27.722Z,15.10
2022-11-27T01:19:27.897Z,15.00
2022-11-27T01:20:28.058Z,15.40
2022-11-27T01:21:28.243Z,13.90
2022-11-27T01:22:28.404Z,14.60
2022-11-27T01:23:28.589Z,15.40
2022-11-27T01:24:28.772Z,16.90
2022-11-27T01:25:28.926Z,16.10
2022-11-27T01:26:29.128Z,16.70
2022-11-27T01:27:29.275Z,14.80
2022-11-27T01:28:29.429Z,15.70
2022-11-27T01:29:29.608Z,15.70
2022-11-27T01:30:29.768Z,14.60
2022-11-27T01:31:29.967Z,13.60
2022-11-27T01:32:30.086Z,14.60
2022-11-27T01:33:30.238Z,15.20
2022-11-27T01:34:30.416Z,17.10
2022-11-27T01:35:33.607Z,15.40
2022-11-27T01:36:30.746Z,14.40
2022-11-27T01:37:30.904Z,14.50
2022-11-27T01:38:31.050Z,14.90
2022-11-27T01:39:31.228Z,17.90
2022-11-27T01:40:31.386Z,14.60
2022-11-27T01:41:31.540Z,16.40
2022-11-27T01:42:31.712Z,14.40
2022-11-27T01:43:31.870Z,16.00
2022-11-27T01:44:32.073Z,14.70
2022-11-27T01:45:32.189Z,15.00
2022-11-27T01:46:32.427Z,14.40
2022-11-27T01:47:32.543Z,14.90
2022-11-27T01:48:32.711Z,14.30
2022-11-27T01:49:32.880Z,15.10
2022-11-27T01:50:33.031Z,16.40
2022-11-27T01:51:33.201Z,14.20
2022-11-27T01:52:33.352Z,14.20
2022-11-27T01:53:33.543Z,13.60
2022-11-27T01:54:33.745Z,13.70
2022-11-27T01:55:33.913Z,14.90
2022-11-27T01:56:34.076Z,15.40
2022-11-27T01:57:34.231Z,14.60
2022-11-27T01:58:34.424Z,16.40
2022-11-27T01:59:34.571Z,15.30
2022-11-27T02:00:34.753Z,14.40
2022-11-27T02:01:34.960Z,14.60
2022-11-27T02:02:35.118Z,13.00
2022-11-27T02:03:35.276Z,13.60
2022-11-27T02:04:35.433Z,14.40
2022-11-27T02:05:35.634Z,14.10
2022-11-27T02:06:35.803Z,13.20
2022-11-27T02:07:36.025Z,14.40
2022-11-27T02:08:36.124Z,15.20
2022-11-27T02:09:36.286Z,14.30
2022-11-27T02:10:36.469Z,14.80
2022-11-27T02:11:36.655Z,13.80
2022-11-27T02:12:36.806Z,14.40
2022-11-27T02:13:36.951Z,13.90
2022-11-27T02:14:37.294Z,14.10
2022-11-27T02:15:37.335Z,14.60
2022-11-27T02:16:37.508Z,14.60
2022-11-27T02:17:37.644Z,14.50
2022-11-27T02:18:37.819Z,13.50
2022-11-27T02:19:37.967Z,13.70
2022-11-27T02:20:38.152Z,13.20
2022-11-27T02:21:38.321Z,14.20
2022-11-27T02:22:38.473Z,13.80
2022-11-27T02:23:38.670Z,13.50
2022-11-27T02:24:39.130Z,15.30
2022-11-27T02:25:38.990Z,13.60
2022-11-27T02:26:39.178Z,13.50
2022-11-27T02:27:39.324Z,14.30
2022-11-27T02:28:39.489Z,12.70
2022-11-27T02:29:39.649Z,12.70
2022-11-27T02:30:39.811Z,13.20
2022-11-27T02:31:40.054Z,14.70
2022-11-27T02:32:40.144Z,13.20
2022-11-27T02:33:40.293Z,12.30
2022-11-27T02:34:40.745Z,12.00
2022-11-27T02:35:40.640Z,13.10
2022-11-27T02:36:40.856Z,13.50
2022-11-27T02:37:40.971Z,13.70
2022-11-27T02:38:41.173Z,13.20
2022-11-27T02:39:41.324Z,12.20
2022-11-27T02:40:41.503Z,11.30
2022-11-27T02:41:41.661Z,13.00
2022-11-27T02:42:41.823Z,11.90
2022-11-27T02:43:41.976Z,11.70
2022-11-27T02:44:42.450Z,13.20
2022-11-27T02:45:42.298Z,12.90
2022-11-27T02:46:42.553Z,12.70
2022-11-27T02:47:42.643Z,12.10
2022-11-27T02:48:42.822Z,12.80
2022-11-27T02:49:42.964Z,13.10
2022-11-27T02:50:43.274Z,12.50
2022-11-27T02:51:43.350Z,12.60
2022-11-27T02:52:43.488Z,12.90
2022-11-27T02:53:43.634Z,14.00
2022-11-27T02:54:43.833Z,13.10
2022-11-27T02:55:43.992Z,12.80
2022-11-27T02:56:44.206Z,13.90
2022-11-27T02:57:44.327Z,11.80
2022-11-27T02:58:44.495Z,12.90
2022-11-27T02:59:44.685Z,12.40
2022-11-27T03:00:44.860Z,11.70
2022-11-27T03:01:45.086Z,12.60
2022-11-27T03:02:45.248Z,12.90
2022-11-27T03:03:45.377Z,12.30
2022-11-27T03:04:45.557Z,12.90
2022-11-27T03:05:45.708Z,12.90
2022-11-27T03:06:45.890Z,11.80
2022-11-27T03:07:46.064Z,13.70
2022-11-27T03:08:46.229Z,12.00
2022-11-27T03:09:46.392Z,12.40
2022-11-27T03:10:46.561Z,13.40
2022-11-27T03:11:46.734Z,12.90
2022-11-27T03:12:46.892Z,10.90
2022-11-27T03:13:47.050Z,12.70
2022-11-27T03:14:47.213Z,13.00
2022-11-27T03:15:47.461Z,11.80
2022-11-27T03:16:47.687Z,13.00
2022-11-27T03:17:47.717Z,11.20
2022-11-27T03:18:47.870Z,11.40
2022-11-27T03:19:48.021Z,12.60
2022-11-27T03:20:48.186Z,12.00
2022-11-27T03:21:48.395Z,12.10
2022-11-27T03:22:48.546Z,13.00
2022-11-27T03:23:48.709Z,12.70
2022-11-27T03:24:48.880Z,12.20
2022-11-27T03:25:49.032Z,12.00
2022-11-27T03:26:49.206Z,11.90
2022-11-27T03:27:49.371Z,11.20
2022-11-27T03:28:49.530Z,12.10
2022-11-27T03:29:49.684Z,12.40
2022-11-27T03:30:49.878Z,11.00
2022-11-27T03:31:50.020Z,11.30
2022-11-27T03:32:50.174Z,10.60
2022-11-27T03:33:50.360Z,11.30
2022-11-27T03:34:50.525Z,10.70
2022-11-27T03:35:50.739Z,12.80
2022-11-27T03:36:50.896Z,11.50
2022-11-27T03:37:51.075Z,11.20
2022-11-27T03:38:51.230Z,10.90
2022-11-27T03:39:51.381Z,11.30
2022-11-27T03:40:51.565Z,10.90
2022-11-27T03:41:51.716Z,10.80
2022-11-27T03:42:51.898Z,10.30
2022-11-27T03:43:52.048Z,10.00
2022-11-27T03:44:52.214Z,10.10
2022-11-27T03:45:52.371Z,10.10
2022-11-27T03:46:52.626Z,9.60
2022-11-27T03:47:52.794Z,10.30
2022-11-27T03:48:52.977Z,10.80
2022-11-27T03:49:53.088Z,10.40
2022-11-27T03:50:53.249Z,10.80
2022-11-27T03:51:53.419Z,10.40
2022-11-27T03:52:53.619Z,11.10
2022-11-27T03:53:53.770Z,11.60
2022-11-27T03:54:53.945Z,9.90
2022-11-27T03:55:54.122Z,11.80
2022-11-27T03:56:54.279Z,11.40
2022-11-27T03:57:54.451Z,11.60
2022-11-27T03:58:54.608Z,11.50
2022-11-27T03:59:54.767Z,11.80
2022-11-27T04:00:54.944Z,11.00
2022-11-27T04:01:55.181Z,10.50
2022-11-27T04:02:55.307Z,11.10
2022-11-27T04:03:55.455Z,11.60
2022-11-27T04:04:55.587Z,11.00
2022-11-27T04:05:55.762Z,12.10
2022-11-27T04:06:55.923Z,11.20
2022-11-27T04:07:56.163Z,10.40
2022-11-27T04:08:56.243Z,12.10
2022-11-27T04:09:56.414Z,11.00
2022-11-27T04:10:56.562Z,10.50
2022-11-27T04:11:56.756Z,11.10
2022-11-27T04:12:57.154Z,12.10
2022-11-27T04:13:57.085Z,11.10
2022-11-27T04:14:57.236Z,11.20
2022-11-27T04:15:57.464Z,10.80
2022-11-27T04:16:57.565Z,11.30
2022-11-27T04:17:57.771Z,11.00
2022-11-27T04:18:57.891Z,10.90
2022-11-27T04:19:58.091Z,11.10
2022-11-27T04:20:58.241Z,11.40
2022-11-27T04:21:58.413Z,12.30
2022-11-27T04:22:58.585Z,11.20
2022-11-27T04:23:58.755Z,10.60
2022-11-27T04:24:58.906Z,10.80
2022-11-27T04:25:59.107Z,10.90
2022-11-27T04:26:59.257Z,12.50
2022-11-27T04:27:59.426Z,11.30
2022-11-27T04:28:59.603Z,12.00
2022-11-27T04:29:59.768Z,11.80
2022-11-27T04:30:59.960Z,10.90
2022-11-27T04:32:00.117Z,11.60
2022-11-27T04:33:00.280Z,10.90
2022-11-27T04:34:00.479Z,10.80
2022-11-27T04:35:00.643Z,11.00
2022-11-27T04:36:00.789Z,10.80
2022-11-27T04:37:00.950Z,12.80
2022-11-27T04:38:01.110Z,11.70
2022-11-27T04:39:01.280Z,12.70
2022-11-27T04:40:01.443Z,12.30
2022-11-27T04:41:01.591Z,12.30
2022-11-27T04:42:01.768Z,11.20
2022-11-27T04:43:01.920Z,12.00
2022-11-27T04:44:02.222Z,12.10
2022-11-27T04:45:02.245Z,12.70
2022-11-27T04:46:02.441Z,12.20
2022-11-27T04:47:02.765Z,12.00
2022-11-27T04:48:02.782Z,13.00
2022-11-27T04:49:02.951Z,13.50
2022-11-27T04:50:03.111Z,13.10
2022-11-27T04:51:03.262Z,13.50
2022-11-27T04:52:03.433Z,12.20
2022-11-27T04:53:03.587Z,13.00
2022-11-27T04:54:03.787Z,12.90
2022-11-27T04:55:03.941Z,13.20
2022-11-27T04:56:04.092Z,14.80
2022-11-27T04:57:04.264Z,13.00
2022-11-27T04:58:04.416Z,13.60
2022-11-27T04:59:04.596Z,14.00
2022-11-27T05:00:04.745Z,14.50
2022-11-27T05:01:04.962Z,15.60
2022-11-27T05:02:05.112Z,13.70
2022-11-27T05:03:05.345Z,13.30
2022-11-27T05:04:05.456Z,14.30
2022-11-27T05:05:05.615Z,14.20
2022-11-27T05:06:05.773Z,13.80
2022-11-27T05:07:05.968Z,14.10
2022-11-27T05:08:06.158Z,14.40
2022-11-27T05:09:06.318Z,14.80
2022-11-27T05:10:06.495Z,14.20
2022-11-27T05:11:06.652Z,14.60
2022-11-27T05:12:06.818Z,13.30
2022-11-27T05:13:06.991Z,14.90
2022-11-27T05:14:07.177Z,14.60
2022-11-27T05:15:07.328Z,17.50
2022-11-27T05:16:07.568Z,14.90
2022-11-27T05:17:07.656Z,14.60
2022-11-27T05:18:07.824Z,13.10
2022-11-27T05:19:08.032Z,15.20
2022-11-27T05:20:08.182Z,14.00
2022-11-27T05:21:08.371Z,13.40
2022-11-27T05:22:08.547Z,12.40
2022-11-27T05:23:08.698Z,15.00
2022-11-27T05:24:08.885Z,13.20
2022-11-27T05:25:09.031Z,13.70
2022-11-27T05:26:09.202Z,13.10
2022-11-27T05:27:09.359Z,12.60
2022-11-27T05:28:09.525Z,13.60
2022-11-27T05:29:09.689Z,13.40
2022-11-27T05:30:09.862Z,13.30
2022-11-27T05:31:10.062Z,12.50
2022-11-27T05:32:10.180Z,13.50
2022-11-27T05:33:10.337Z,14.80
2022-11-27T05:34:10.542Z,12.90
2022-11-27T05:35:10.689Z,13.80
2022-11-27T05:36:10.857Z,13.70
2022-11-27T05:37:15.024Z,15.50
2022-11-27T05:38:12.191Z,14.00
2022-11-27T05:39:11.391Z,12.90
2022-11-27T05:40:11.541Z,14.30
2022-11-27T05:41:11.704Z,13.70
2022-11-27T05:42:11.903Z,13.30
2022-11-27T05:43:12.053Z,13.20
2022-11-27T05:44:12.238Z,14.20
2022-11-27T05:45:12.388Z,13.70
2022-11-27T05:46:12.605Z,13.60
2022-11-27T05:47:12.745Z,14.20
2022-11-27T05:48:12.909Z,14.40
2022-11-27T05:49:13.100Z,14.10
2022-11-27T05:50:13.257Z,12.50
2022-11-27T05:51:13.409Z,13.40
2022-11-27T05:52:13.584Z,13.10
2022-11-27T05:53:13.744Z,13.80
2022-11-27T05:54:14.155Z,14.10
2022-11-27T05:55:14.074Z,13.70
2022-11-27T05:56:14.237Z,13.70
2022-11-27T05:57:14.427Z,13.80
2022-11-27T05:58:14.606Z,14.40
2022-11-27T05:59:14.779Z,13.30
2022-11-27T06:00:14.948Z,13.70
2022-11-27T06:01:15.106Z,13.20
2022-11-27T06:02:21.553Z,13.40
2022-11-27T06:03:16.487Z,12.90
2022-11-27T06:04:15.616Z,12.40
2022-11-27T06:05:15.768Z,13.20
2022-11-27T06:06:15.980Z,13.30
2022-11-27T06:07:16.182Z,11.80
2022-11-27T06:08:16.307Z,13.50
2022-11-27T06:09:16.461Z,13.40
2022-11-27T06:10:16.623Z,13.60
2022-11-27T06:11:16.801Z,12.80
2022-11-27T06:12:16.962Z,12.00
2022-11-27T06:13:17.108Z,12.00
2022-11-27T06:14:17.271Z,13.20
2022-11-27T06:15:17.442Z,13.00
2022-11-27T06:16:17.624Z,13.30
2022-11-27T06:17:17.754Z,12.10
2022-11-27T06:18:17.948Z,13.30
2022-11-27T06:19:18.132Z,12.90
2022-11-27T06:20:18.314Z,12.40
2022-11-27T06:21:18.462Z,14.20
2022-11-27T06:22:18.638Z,13.90
2022-11-27T06:23:18.793Z,11.80
2022-11-27T06:24:18.962Z,12.70
2022-11-27T06:25:19.132Z,11.90
2022-11-27T06:26:19.292Z,13.30
2022-11-27T06:27:19.443Z,13.80
2022-11-27T06:28:19.634Z,13.90
2022-11-27T06:29:19.793Z,12.80
2022-11-27T06:30:19.984Z,12.20
2022-11-27T06:31:20.173Z,14.40
2022-11-27T06:32:20.283Z,14.70
2022-11-27T06:33:20.435Z,13.40
2022-11-27T06:34:20.635Z,12.40
2022-11-27T06:35:20.810Z,13.60
2022-11-27T06:36:20.976Z,11.80
2022-11-27T06:37:21.149Z,12.50
2022-11-27T06:38:21.296Z,13.50
2022-11-27T06:39:21.446Z,13.80
2022-11-27T06:40:21.625Z,13.50
2022-11-27T06:41:21.778Z,12.30
2022-11-27T06:42:21.964Z,13.50
2022-11-27T06:43:22.117Z,13.00
2022-11-27T06:44:22.297Z,12.60
2022-11-27T06:45:22.522Z,12.30
2022-11-27T06:46:22.690Z,13.80
2022-11-27T06:47:22.835Z,13.70
2022-11-27T06:48:22.987Z,12.30
2022-11-27T06:49:23.154Z,12.40
2022-11-27T06:50:23.319Z,13.30
2022-11-27T06:51:23.504Z,12.30
2022-11-27T06:52:23.648Z,12.90
2022-11-27T06:53:23.857Z,13.40
2022-11-27T06:54:24.002Z,12.30
2022-11-27T06:55:24.171Z,13.20
2022-11-27T06:56:24.349Z,12.50
2022-11-27T06:57:24.540Z,12.30
2022-11-27T06:58:30.712Z,14.00
2022-11-27T06:59:25.862Z,13.00
2022-11-27T07:00:25.030Z,14.00
2022-11-27T07:01:25.307Z,12.60
2022-11-27T07:02:25.466Z,13.20
2022-11-27T07:03:25.591Z,13.40
2022-11-27T07:04:25.732Z,13.50
2022-11-27T07:05:25.911Z,13.10
2022-11-27T07:06:26.083Z,12.70
2022-11-27T07:07:26.276Z,13.40
2022-11-27T07:08:26.443Z,13.30
2022-11-27T07:09:26.601Z,13.20
2022-11-27T07:10:26.781Z,12.90
2022-11-27T07:11:26.954Z,13.40
2022-11-27T07:12:27.138Z,13.80
2022-11-27T07:13:27.338Z,12.80
2022-11-27T07:14:27.483Z,14.60
2022-11-27T07:15:27.660Z,13.80
2022-11-27T07:16:27.898Z,13.60
2022-11-27T07:17:28.007Z,15.00
2022-11-27T07:18:28.198Z,13.90
2022-11-27T07:19:28.353Z,14.20
2022-11-27T07:20:28.533Z,14.90
2022-11-27T07:21:28.706Z,14.10
2022-11-27T07:22:28.906Z,14.40
2022-11-27T07:23:29.065Z,15.40
2022-11-27T07:24:29.225Z,13.70
2022-11-27T07:25:29.397Z,12.80
2022-11-27T07:26:29.592Z,13.60
2022-11-27T07:27:29.765Z,14.30
2022-11-27T07:28:29.926Z,14.30
2022-11-27T07:29:30.107Z,14.20
2022-11-27T07:30:30.249Z,15.90
2022-11-27T07:31:30.579Z,14.60
2022-11-27T07:32:30.635Z,15.00
2022-11-27T07:33:30.775Z,15.00
2022-11-27T07:34:30.958Z,16.20
2022-11-27T07:35:31.131Z,14.80
2022-11-27T07:36:31.326Z,13.70
2022-11-27T07:37:31.478Z,14.80
2022-11-27T07:38:31.748Z,14.80
2022-11-27T07:39:54.486Z,15.30
2022-11-27T07:40:33.008Z,15.30
2022-11-27T07:41:34.098Z,13.50
2022-11-27T07:42:39.705Z,14.80
2022-11-27T07:43:33.547Z,15.10
2022-11-27T07:44:32.739Z,14.70
2022-11-27T07:45:32.965Z,15.60
2022-11-27T07:46:33.146Z,14.40
2022-11-27T07:47:33.280Z,14.10
2022-11-27T07:48:33.467Z,15.00
2022-11-27T07:49:33.642Z,14.80
2022-11-27T07:50:33.821Z,14.40
2022-11-27T07:51:34.016Z,14.70
2022-11-27T07:52:39.543Z,17.40
2022-11-27T07:53:35.366Z,15.30
2022-11-27T07:54:34.554Z,15.30
2022-11-27T07:55:34.716Z,15.00
2022-11-27T07:56:34.915Z,14.90
2022-11-27T07:57:35.082Z,14.90
2022-11-27T07:58:35.243Z,15.00
2022-11-27T07:59:35.422Z,14.50
2022-11-27T08:00:35.652Z,14.60
2022-11-27T08:01:35.840Z,13.80
2022-11-27T08:02:35.987Z,14.90
2022-11-27T08:03:36.158Z,15.60
2022-11-27T08:04:36.402Z,15.70
2022-11-27T08:05:36.518Z,14.80
2022-11-27T08:06:36.705Z,15.10
2022-11-27T08:07:36.945Z,15.30
2022-11-27T08:08:37.069Z,15.00
2022-11-27T08:09:37.235Z,14.00
2022-11-27T08:10:37.429Z,17.00
2022-11-27T08:11:37.587Z,14.80
2022-11-27T08:12:37.795Z,13.90
2022-11-27T08:13:37.935Z,15.30
2022-11-27T08:14:38.383Z,14.60
2022-11-27T08:15:38.307Z,14.40
2022-11-27T08:16:38.569Z,14.60
2022-11-27T08:17:38.665Z,15.10
2022-11-27T08:18:38.830Z,15.80
2022-11-27T08:19:39.014Z,15.00
2022-11-27T08:20:39.218Z,15.10
2022-11-27T08:21:39.364Z,14.50
2022-11-27T08:22:39.557Z,14.90
2022-11-27T08:23:39.728Z,15.40
2022-11-27T08:24:40.034Z,16.60
2022-11-27T08:25:40.078Z,15.50
2022-11-27T08:26:40.263Z,14.60
2022-11-27T08:27:40.470Z,14.00
2022-11-27T08:28:40.613Z,16.20
2022-11-27T08:29:40.796Z,15.50
2022-11-27T08:30:40.969Z,17.10
2022-11-27T08:31:41.174Z,16.20
2022-11-27T08:32:41.362Z,14.90
2022-11-27T08:33:41.513Z,16.40
2022-11-27T08:34:41.929Z,16.40
2022-11-27T08:35:41.871Z,15.80
2022-11-27T08:36:42.042Z,15.90
2022-11-27T08:37:42.236Z,15.80
2022-11-27T08:38:42.401Z,14.10
2022-11-27T08:39:42.592Z,15.60
2022-11-27T08:40:42.796Z,15.70
2022-11-27T08:41:42.943Z,17.10
2022-11-27T08:42:43.133Z,15.50
2022-11-27T08:43:43.302Z,14.40
2022-11-27T08:44:43.639Z,14.80
2022-11-27T08:45:43.677Z,14.30
2022-11-27T08:46:43.824Z,14.60
2022-11-27T08:47:44.054Z,14.90
2022-11-27T08:48:44.200Z,14.60
2022-11-27T08:49:46.243Z,15.20
2022-11-27T08:50:44.552Z,15.40
2022-11-27T08:51:44.737Z,14.40
2022-11-27T08:52:44.912Z,15.20
2022-11-27T08:53:45.085Z,16.70
2022-11-27T08:54:45.255Z,14.50
2022-11-27T08:55:45.446Z,14.00
2022-11-27T08:56:45.605Z,15.50
2022-11-27T08:57:45.831Z,14.10
2022-11-27T08:58:45.974Z,15.10
2022-11-27T08:59:46.145Z,15.20
2022-11-27T09:00:46.377Z,13.90
2022-11-27T09:01:46.486Z,14.90
2022-11-27T09:02:46.673Z,14.90
2022-11-27T09:03:46.910Z,13.50
2022-11-27T09:04:47.071Z,14.20
2022-11-27T09:05:47.212Z,13.40
2022-11-27T09:06:47.381Z,14.10
2022-11-27T09:07:47.592Z,13.00
2022-11-27T09:08:47.757Z,14.20
2022-11-27T09:09:47.895Z,13.20
2022-11-27T09:10:48.169Z,13.30
2022-11-27T09:11:48.249Z,12.80
2022-11-27T09:12:48.415Z,13.80
2022-11-27T09:13:48.611Z,13.50
2022-11-27T09:14:48.769Z,13.40
2022-11-27T09:15:48.959Z,14.60
2022-11-27T09:16:49.164Z,13.60
2022-11-27T09:17:49.340Z,16.40
2022-11-27T09:18:49.501Z,14.30
2022-11-27T09:19:49.670Z,13.20
2022-11-27T09:20:49.840Z,14.50
2022-11-27T09:21:50.040Z,13.80
2022-11-27T09:22:50.199Z,15.30
2022-11-27T09:23:50.411Z,14.30
2022-11-27T09:24:50.557Z,13.70
2022-11-27T09:25:50.739Z,14.80
2022-11-27T09:26:50.903Z,14.20
2022-11-27T09:27:51.083Z,14.90
2022-11-27T09:28:51.279Z,15.20
2022-11-27T09:29:51.467Z,12.90
2022-11-27T09:30:51.633Z,13.50
2022-11-27T09:31:51.850Z,13.30
2022-11-27T09:32:51.995Z,12.80
2022-11-27T09:33:52.202Z,13.70
2022-11-27T09:34:52.376Z,14.20
2022-11-27T09:35:52.544Z,12.30
2022-11-27T09:36:52.704Z,14.00
2022-11-27T09:37:52.879Z,12.80
2022-11-27T09:38:53.067Z,12.20
2022-11-27T09:39:53.238Z,14.30
2022-11-27T09:40:53.420Z,13.40
2022-11-27T09:41:53.599Z,12.00
2022-11-27T09:42:53.780Z,13.40
2022-11-27T09:43:53.974Z,12.90
2022-11-27T09:44:54.136Z,13.40
2022-11-27T09:45:54.339Z,13.50
2022-11-27T09:46:54.534Z,14.30
2022-11-27T09:47:54.672Z,13.70
2022-11-27T09:48:54.863Z,13.80
2022-11-27T09:49:55.038Z,13.40
2022-11-27T09:50:55.208Z,15.20
2022-11-27T09:51:55.396Z,13.80
2022-11-27T09:52:55.578Z,11.90
2022-11-27T09:53:55.758Z,11.90
2022-11-27T09:54:55.927Z,12.90
2022-11-27T09:55:56.106Z,12.60
2022-11-27T09:56:56.289Z,12.50
2022-11-27T09:57:56.479Z,12.60
2022-11-27T09:58:56.639Z,12.20
2022-11-27T09:59:56.824Z,13.30
2022-11-27T10:00:57.000Z,13.40
2022-11-27T10:01:57.378Z,12.70
2022-11-27T10:02:57.457Z,14.20
2022-11-27T10:03:57.539Z,13.10
2022-11-27T10:05:13.470Z,13.20
2022-11-27T10:05:58.863Z,12.50
2022-11-27T10:06:58.082Z,14.70
2022-11-27T10:08:03.291Z,12.20
2022-11-27T10:08:59.402Z,11.10
2022-11-27T10:09:58.592Z,12.00
2022-11-27T10:10:58.756Z,13.90
2022-11-27T10:11:58.943Z,11.80
2022-11-27T10:12:59.134Z,12.50
2022-11-27T10:13:59.299Z,13.90
2022-11-27T10:14:59.477Z,11.20
2022-11-27T10:15:59.671Z,14.10
2022-11-27T10:17:00.156Z,12.00
2022-11-27T10:18:00.013Z,12.50
2022-11-27T10:19:00.195Z,12.40
2022-11-27T10:20:00.377Z,12.20
2022-11-27T10:21:00.544Z,11.30
2022-11-27T10:22:00.735Z,12.50
2022-11-27T10:23:00.908Z,13.40
2022-11-27T10:24:01.102Z,12.60
2022-11-27T10:25:01.268Z,11.10
2022-11-27T10:26:01.466Z,11.70
2022-11-27T10:27:01.605Z,12.30
2022-11-27T10:28:01.786Z,12.40
2022-11-27T10:29:01.959Z,12.20
2022-11-27T10:30:02.153Z,12.00
2022-11-27T10:31:02.326Z,11.50
2022-11-27T10:32:02.541Z,10.80
2022-11-27T10:33:02.748Z,12.80
2022-11-27T10:34:02.851Z,10.90
2022-11-27T10:35:03.032Z,12.20
2022-11-27T10:36:03.239Z,12.30
2022-11-27T10:37:03.400Z,12.30
2022-11-27T10:38:06.767Z,11.80
2022-11-27T10:39:03.734Z,10.70
2022-11-27T10:40:03.909Z,10.40
2022-11-27T10:41:04.110Z,10.20
2022-11-27T10:42:04.279Z,12.00
2022-11-27T10:43:04.455Z,11.50
2022-11-27T10:44:04.630Z,11.60
2022-11-27T10:45:04.833Z,11.00
2022-11-27T10:46:05.037Z,11.80
2022-11-27T10:47:05.175Z,12.90
2022-11-27T10:48:05.347Z,12.20
2022-11-27T10:49:05.524Z,11.50
2022-11-27T10:50:05.721Z,13.70
2022-11-27T10:51:05.885Z,13.10
2022-11-27T10:52:06.063Z,12.60
2022-11-27T10:53:06.231Z,10.90
2022-11-27T10:54:06.437Z,11.80
2022-11-27T10:55:06.852Z,12.40
2022-11-27T10:56:06.780Z,12.40
2022-11-27T10:57:06.956Z,11.50
2022-11-27T10:58:07.143Z,12.50
2022-11-27T10:59:07.323Z,10.80
2022-11-27T11:00:07.528Z,11.70
2022-11-27T11:01:07.729Z,10.90
2022-11-27T11:02:07.955Z,12.60
2022-11-27T11:03:08.036Z,11.80
2022-11-27T11:04:24.702Z,11.70
2022-11-27T11:05:31.130Z,12.30
2022-11-27T11:06:20.837Z,12.30
2022-11-27T11:07:09.776Z,11.70
2022-11-27T11:08:08.930Z,9.70
2022-11-27T11:09:09.088Z,10.60
2022-11-27T11:10:09.269Z,11.30
2022-11-27T11:11:09.450Z,11.00
2022-11-27T11:12:09.639Z,10.50
2022-11-27T11:13:09.817Z,10.90
2022-11-27T11:14:09.972Z,11.50
2022-11-27T11:15:10.159Z,11.40
2022-11-27T11:16:14.511Z,11.70
2022-11-27T11:17:10.584Z,10.40
2022-11-27T11:18:10.679Z,11.80
2022-11-27T11:19:10.869Z,11.10
2022-11-27T11:20:12.027Z,10.50
2022-11-27T11:21:11.225Z,9.80
2022-11-27T11:22:14.571Z,10.30
2022-11-27T11:23:11.580Z,10.40
2022-11-27T11:24:11.772Z,10.80
2022-11-27T11:25:11.922Z,10.60
2022-11-27T11:26:12.113Z,8.90
2022-11-27T11:27:12.292Z,11.30
2022-11-27T11:28:12.453Z,10.00
2022-11-27T11:29:12.634Z,10.10
2022-11-27T11:30:12.823Z,11.20
2022-11-27T11:31:13.059Z,11.60
2022-11-27T11:32:13.273Z,12.80
2022-11-27T11:33:13.343Z,9.90
2022-11-27T11:34:13.504Z,11.00
2022-11-27T11:35:13.685Z,10.80
2022-11-27T11:36:13.854Z,11.90
2022-11-27T11:37:14.033Z,10.00
2022-11-27T11:38:14.213Z,10.90
2022-11-27T11:39:14.394Z,9.90
2022-11-27T11:40:16.275Z,9.80
2022-11-27T11:41:14.766Z,9.70
2022-11-27T11:42:14.947Z,9.10
2022-11-27T11:43:15.111Z,8.80
2022-11-27T11:44:15.277Z,10.80
2022-11-27T11:45:15.427Z,8.70
2022-11-27T11:46:15.654Z,8.60
2022-11-27T11:47:15.766Z,8.20
2022-11-27T11:48:15.917Z,9.20
2022-11-27T11:49:16.107Z,9.30
2022-11-27T11:50:16.334Z,8.20
2022-11-27T11:51:16.489Z,8.80
2022-11-27T11:52:16.660Z,9.50
2022-11-27T11:53:16.840Z,8.70
2022-11-27T11:54:17.009Z,8.40
2022-11-27T11:55:17.187Z,7.40
2022-11-27T11:56:17.394Z,9.10
2022-11-27T11:57:17.522Z,9.50
2022-11-27T11:58:17.691Z,9.20
2022-11-27T11:59:17.846Z,8.20
2022-11-27T12:00:18.037Z,8.90
2022-11-27T12:01:33.439Z,9.70
2022-11-27T12:02:19.402Z,9.70
2022-11-27T12:03:18.521Z,8.60
2022-11-27T12:04:18.723Z,10.80
2022-11-27T12:05:18.859Z,8.90
2022-11-27T12:06:19.047Z,8.00
2022-11-27T12:07:19.300Z,9.20
2022-11-27T12:08:19.400Z,8.40
2022-11-27T12:09:19.565Z,8.50
2022-11-27T12:10:19.747Z,9.50
2022-11-27T12:11:19.937Z,10.20
2022-11-27T12:12:20.090Z,9.70
2022-11-27T12:13:20.257Z,9.60
2022-11-27T12:14:20.436Z,8.30
2022-11-27T12:15:20.607Z,7.80
2022-11-27T12:16:20.839Z,9.20
2022-11-27T12:17:20.950Z,9.60
2022-11-27T12:18:21.150Z,8.50
2022-11-27T12:19:21.297Z,7.40
2022-11-27T12:20:21.491Z,7.50
2022-11-27T12:21:21.664Z,9.20
2022-11-27T12:22:21.852Z,9.10
2022-11-27T12:23:21.999Z,9.30
2022-11-27T12:24:22.180Z,8.70
2022-11-27T12:25:22.389Z,8.00
2022-11-27T12:26:22.535Z,8.40
2022-11-27T12:27:22.710Z,8.60
2022-11-27T12:28:22.890Z,9.20
2022-11-27T12:29:23.102Z,8.90
2022-11-27T12:30:23.231Z,7.50
2022-11-27T12:31:23.407Z,9.20
2022-11-27T12:32:23.553Z,8.30
2022-11-27T12:33:23.727Z,8.60
2022-11-27T12:34:23.902Z,8.30
2022-11-27T12:35:24.073Z,8.80
2022-11-27T12:36:24.264Z,7.70
2022-11-27T12:37:24.422Z,7.20
2022-11-27T12:38:24.594Z,8.40
2022-11-27T12:39:24.774Z,8.80
2022-11-27T12:40:24.966Z,8.50
2022-11-27T12:41:25.106Z,6.40
2022-11-27T12:42:25.276Z,6.40
2022-11-27T12:43:25.473Z,7.50
2022-11-27T12:44:25.652Z,8.40
2022-11-27T12:45:25.889Z,7.60
2022-11-27T12:46:26.021Z,7.70
2022-11-27T12:47:26.174Z,7.20
2022-11-27T12:48:26.350Z,8.00
2022-11-27T12:49:26.537Z,8.00
2022-11-27T12:50:26.729Z,7.40
2022-11-27T12:51:26.868Z,8.20
2022-11-27T12:52:27.053Z,7.10
2022-11-27T12:53:27.228Z,7.20
2022-11-27T12:54:27.380Z,7.10
2022-11-27T12:55:27.598Z,7.10
2022-11-27T12:56:27.710Z,6.40
2022-11-27T12:57:27.888Z,6.90